DFOO/BOY METAR and TAF weather

Enter ICAO airport designator
Station Type Date Time Source
DFOO METAR 2022/01/26 20:00 UTC NOAA

DFOO 262000Z 05005KT 8000 NSC 23/00 Q1012


Station Type Date Time Source
DFOO Decoded METAR 2022/01/26 20:00 UTC NOAA

Bobo-Dioulasso, Burkina Faso (DFOO) 11-10N 004-19W 460M
Jan 26, 2022 - 03:00 PM EST / 2022.01.26 2000 UTC
Wind: from the NE (050 degrees) at 6 MPH (5 KT):0
Visibility: 4 mile(s):0
Temperature: 73 F (23 C)
Dew Point: 32 F (0 C)
Relative Humidity: 21%
Pressure (altimeter): 29.88 in. Hg (1012 hPa)
ob: DFOO 262000Z 05005KT 8000 NSC 23/00 Q1012
cycle: 20

Station Type Date Time Source
DFOO TAF 2022/01/26 18:22 UTC NOAA

TAF DFOO 261700Z 2618/2718 08008KT 8000 NSC

Example: see airport list